Time;durP1;ratioP1;P1;durP2;ratioP2;P2;SDS_P1;SDS_P2;PMS_P1;PMS_P2;Temp;Humidity;BMP_temperature;BMP_pressure;BME280_temperature;BME280_humidity;BME280_pressure;Samples;Min_cycle;Max_cycle;Signal;HPM_P1;HPM_P2
2021/07/08 00:01:42;;;;;;;13.02;8.38;;;15.30;93.50;;;;;;4987946;28;20056;-49
2021/07/08 00:04:09;;;;;;;9.40;7.68;;;15.30;93.40;;;;;;5007533;28;20042;-52
2021/07/08 00:06:34;;;;;;;10.57;7.80;;;15.20;93.40;;;;;;5015681;28;20057;-48
2021/07/08 00:09:01;;;;;;;13.18;10.63;;;15.10;93.50;;;;;;5012181;28;20072;-49
2021/07/08 00:11:27;;;;;;;13.88;10.68;;;15.10;93.60;;;;;;5011898;28;20038;-49
2021/07/08 00:13:53;;;;;;;13.93;11.90;;;15.10;93.70;;;;;;5009955;28;20141;-49
2021/07/08 00:16:19;;;;;;;13.90;11.60;;;15.10;93.80;;;;;;5010782;28;20119;-49
2021/07/08 00:18:44;;;;;;;15.13;11.57;;;15.10;93.80;;;;;;5006058;28;20042;-50
2021/07/08 00:21:10;;;;;;;15.10;11.75;;;15.10;94.00;;;;;;5012063;28;20080;-50
2021/07/08 00:23:36;;;;;;;14.68;12.18;;;15.10;93.90;;;;;;4988222;28;20590;-53
2021/07/08 00:26:02;;;;;;;18.00;12.45;;;15.00;93.90;;;;;;5011503;28;20056;-49
2021/07/08 00:28:27;;;;;;;18.60;13.13;;;15.00;94.10;;;;;;5012124;28;20046;-51
2021/07/08 00:30:54;;;;;;;16.17;13.60;;;14.90;94.10;;;;;;4993564;28;20053;-50
2021/07/08 00:33:20;;;;;;;16.73;13.77;;;14.90;94.20;;;;;;5009729;28;20046;-51
2021/07/08 00:35:47;;;;;;;18.90;14.10;;;14.90;94.30;;;;;;4993052;28;20074;-49
2021/07/08 00:38:13;;;;;;;18.45;12.35;;;14.90;94.40;;;;;;5011495;28;20053;-49
2021/07/08 00:40:39;;;;;;;18.95;12.93;;;15.00;94.40;;;;;;5001086;28;20037;-48
2021/07/08 00:43:06;;;;;;;19.98;13.00;;;14.90;94.30;;;;;;5005251;28;20035;-49
2021/07/08 00:45:32;;;;;;;15.32;11.90;;;14.90;94.30;;;;;;5012313;28;20052;-51
2021/07/08 00:47:58;;;;;;;11.32;9.38;;;14.90;94.30;;;;;;5014775;28;20042;-49
2021/07/08 00:50:31;;;;;;;12.23;9.20;;;14.90;94.20;;;;;;5014346;28;20046;-51
2021/07/08 00:52:58;;;;;;;14.30;9.25;;;14.80;94.00;;;;;;5020343;28;20048;-49
2021/07/08 00:55:24;;;;;;;11.95;10.15;;;14.80;93.80;;;;;;5012587;28;20026;-48
2021/07/08 00:57:52;;;;;;;16.70;10.63;;;14.70;93.90;;;;;;5002591;28;20041;-49
2021/07/08 01:00:48;;;;;;;15.68;12.23;;;14.70;93.90;;;;;;5014378;28;20042;-51
2021/07/08 01:03:15;;;;;;;16.45;12.65;;;14.70;94.20;;;;;;5002953;28;20038;-49
2021/07/08 01:05:44;;;;;;;15.18;12.45;;;14.70;94.10;;;;;;5004751;28;20049;-51
2021/07/08 01:08:11;;;;;;;14.50;12.13;;;14.70;94.20;;;;;;5007117;28;20486;-51
2021/07/08 01:10:39;;;;;;;16.25;13.18;;;14.70;94.20;;;;;;5002917;28;20070;-49
2021/07/08 01:13:05;;;;;;;17.55;12.18;;;14.70;94.30;;;;;;5006141;28;20042;-51
2021/07/08 01:15:31;;;;;;;17.20;13.02;;;14.70;94.10;;;;;;5016862;28;20041;-50
2021/07/08 01:17:57;;;;;;;14.05;11.98;;;14.70;94.20;;;;;;5014315;28;20053;-49
2021/07/08 01:20:26;;;;;;;15.07;11.80;;;14.60;94.30;;;;;;5014820;28;20449;-50
2021/07/08 01:22:58;;;;;;;17.65;12.80;;;14.60;94.30;;;;;;5011589;28;20042;-51
2021/07/08 01:25:26;;;;;;;14.70;12.43;;;14.60;94.40;;;;;;5012092;28;20092;-51
2021/07/08 01:27:53;;;;;;;13.93;11.15;;;14.60;94.40;;;;;;5011043;28;20053;-50
2021/07/08 01:30:19;;;;;;;13.32;10.35;;;14.60;94.40;;;;;;5025849;28;20048;-49
2021/07/08 01:32:45;;;;;;;14.50;9.73;;;14.60;94.30;;;;;;5022697;28;20042;-50
2021/07/08 01:35:13;;;;;;;12.70;9.18;;;14.60;94.20;;;;;;5007595;28;20049;-50
2021/07/08 01:37:39;;;;;;;14.48;10.90;;;14.40;93.90;;;;;;5011675;28;20038;-51
2021/07/08 01:40:06;;;;;;;15.98;11.07;;;14.40;94.00;;;;;;5009553;28;20053;-51
2021/07/08 01:42:32;;;;;;;15.80;10.32;;;14.40;94.00;;;;;;5007732;28;20041;-50
2021/07/08 01:44:57;;;;;;;15.55;10.75;;;14.30;94.00;;;;;;5005180;28;20072;-50
2021/07/08 01:47:23;;;;;;;13.85;11.73;;;14.30;94.00;;;;;;5010496;28;20052;-50
2021/07/08 01:49:49;;;;;;;17.83;12.60;;;14.20;94.00;;;;;;5022828;28;20112;-50
2021/07/08 01:52:16;;;;;;;17.73;13.63;;;14.20;94.20;;;;;;5010820;28;20042;-49
2021/07/08 01:54:42;;;;;;;14.75;12.90;;;14.20;94.30;;;;;;5011714;28;20041;-49
2021/07/08 01:57:07;;;;;;;14.60;12.88;;;14.20;94.40;;;;;;5007529;28;20034;-51
2021/07/08 01:59:33;;;;;;;18.27;13.38;;;14.20;94.40;;;;;;5013595;28;20133;-49
2021/07/08 02:01:59;;;;;;;19.58;13.65;;;14.20;94.60;;;;;;4994796;28;20589;-49
2021/07/08 02:04:25;;;;;;;18.08;15.50;;;14.20;94.50;;;;;;5000102;28;20049;-50
2021/07/08 02:06:53;;;;;;;19.17;14.60;;;14.20;94.70;;;;;;5013012;28;20075;-49
2021/07/08 02:09:19;;;;;;;21.50;14.77;;;14.20;94.80;;;;;;5004138;28;20142;-50
2021/07/08 02:11:46;;;;;;;19.50;14.63;;;14.20;94.80;;;;;;5012096;28;20064;-52
2021/07/08 02:14:11;;;;;;;21.90;15.80;;;14.20;94.80;;;;;;5012293;28;20038;-50
2021/07/08 02:16:37;;;;;;;21.42;15.10;;;14.20;94.80;;;;;;5008618;28;20077;-49
2021/07/08 02:19:05;;;;;;;18.58;15.38;;;14.20;94.80;;;;;;5012607;28;20036;-48
2021/07/08 02:21:31;;;;;;;18.92;14.77;;;14.20;94.80;;;;;;5007700;28;20049;-51
2021/07/08 02:23:58;;;;;;;19.95;15.13;;;14.20;94.90;;;;;;5012984;28;20483;-49
2021/07/08 02:26:23;;;;;;;19.65;14.63;;;14.30;94.90;;;;;;5008784;28;20065;-49
2021/07/08 02:28:49;;;;;;;20.23;15.38;;;14.20;94.90;;;;;;5011896;28;20041;-48
2021/07/08 02:31:15;;;;;;;20.80;15.82;;;14.30;95.00;;;;;;5011763;28;20045;-51
2021/07/08 02:33:42;;;;;;;15.43;12.20;;;14.20;94.90;;;;;;5009852;28;20053;-48
2021/07/08 02:36:08;;;;;;;15.55;11.65;;;14.20;95.00;;;;;;5011205;28;20038;-49
2021/07/08 02:38:35;;;;;;;16.88;12.23;;;14.20;94.80;;;;;;5014263;28;20099;-49
2021/07/08 02:41:03;;;;;;;19.20;12.40;;;14.20;94.70;;;;;;5012845;28;20041;-49
2021/07/08 02:43:28;;;;;;;18.63;13.63;;;14.10;94.70;;;;;;5010686;28;20045;-53
2021/07/08 02:45:54;;;;;;;19.92;15.02;;;14.10;94.80;;;;;;5011042;28;20042;-49
2021/07/08 02:48:21;;;;;;;20.98;15.32;;;14.10;94.80;;;;;;5011085;28;20050;-50
2021/07/08 02:50:50;;;;;;;19.13;14.80;;;14.00;94.90;;;;;;5010319;28;20124;-53
2021/07/08 02:53:16;;;;;;;18.77;14.38;;;14.00;94.90;;;;;;5008027;28;20044;-49
2021/07/08 02:55:42;;;;;;;17.02;14.40;;;13.90;95.00;;;;;;4987805;28;20160;-49
2021/07/08 02:58:08;;;;;;;19.52;14.63;;;14.00;95.10;;;;;;5023472;28;20076;-49
2021/07/08 03:00:34;;;;;;;18.50;14.75;;;14.00;94.90;;;;;;5016437;28;20045;-48
2021/07/08 03:03:00;;;;;;;17.48;14.13;;;14.00;94.90;;;;;;5005449;28;20045;-51
2021/07/08 03:05:27;;;;;;;17.00;13.18;;;13.90;94.80;;;;;;5012282;28;20048;-49
2021/07/08 03:07:54;;;;;;;13.25;10.50;;;13.90;94.90;;;;;;5010650;28;20494;-49
2021/07/08 03:10:22;;;;;;;13.55;11.25;;;13.80;94.90;;;;;;5006251;28;20045;-52
2021/07/08 03:12:48;;;;;;;14.27;11.20;;;13.80;94.80;;;;;;5009660;28;20053;-54
2021/07/08 03:15:15;;;;;;;20.42;12.18;;;13.80;94.60;;;;;;5010578;28;20052;-52
2021/07/08 03:17:42;;;;;;;15.20;11.15;;;13.70;94.60;;;;;;4991115;28;20109;-52
2021/07/08 03:20:11;;;;;;;23.17;12.40;;;13.80;94.70;;;;;;5018765;28;20061;-50
2021/07/08 03:22:38;;;;;;;17.27;13.45;;;13.70;94.70;;;;;;5012004;28;20038;-51
2021/07/08 03:25:06;;;;;;;16.55;12.70;;;13.70;94.80;;;;;;5005787;28;20547;-53
2021/07/08 03:27:32;;;;;;;16.75;12.63;;;13.70;95.00;;;;;;5010414;28;20077;-50
2021/07/08 03:30:00;;;;;;;19.63;13.38;;;13.70;95.00;;;;;;5010230;28;20432;-51
2021/07/08 03:32:25;;;;;;;19.00;12.73;;;13.60;95.10;;;;;;5011243;28;20104;-51
2021/07/08 03:34:51;;;;;;;15.82;11.18;;;13.70;95.20;;;;;;4997406;28;20442;-50
2021/07/08 03:37:17;;;;;;;16.55;12.25;;;13.60;95.10;;;;;;5019224;28;20490;-50
2021/07/08 03:39:43;;;;;;;13.15;10.85;;;13.70;95.10;;;;;;5010059;28;20033;-53
2021/07/08 03:42:09;;;;;;;13.50;10.15;;;13.70;95.10;;;;;;5001864;28;20149;-51
2021/07/08 03:44:35;;;;;;;13.55;10.77;;;13.70;94.80;;;;;;5008144;28;20131;-54
2021/07/08 03:47:04;;;;;;;14.13;10.93;;;13.60;94.70;;;;;;5005019;28;20049;-53
2021/07/08 03:49:30;;;;;;;15.40;12.05;;;13.60;94.70;;;;;;5006519;28;20046;-50
2021/07/08 03:51:56;;;;;;;16.65;12.45;;;13.50;94.80;;;;;;5012003;28;20034;-51
2021/07/08 03:54:22;;;;;;;17.13;12.18;;;13.60;95.00;;;;;;5010774;28;20052;-48
2021/07/08 03:56:48;;;;;;;17.55;12.15;;;13.70;95.00;;;;;;5017368;28;20546;-49
2021/07/08 03:59:14;;;;;;;15.35;12.13;;;13.70;94.70;;;;;;5011945;28;20178;-48
2021/07/08 04:01:41;;;;;;;15.18;12.90;;;13.60;94.90;;;;;;5011479;28;20470;-49
2021/07/08 04:04:07;;;;;;;14.43;12.07;;;13.60;95.00;;;;;;5010845;28;20132;-50
2021/07/08 04:06:33;;;;;;;15.98;11.57;;;13.60;95.00;;;;;;5014882;28;20121;-50
2021/07/08 04:08:59;;;;;;;17.77;12.10;;;13.50;95.10;;;;;;4985195;28;20052;-48
2021/07/08 04:11:25;;;;;;;17.92;11.50;;;13.60;95.30;;;;;;5011272;28;20046;-52
2021/07/08 04:13:56;;;;;;;17.90;12.68;;;13.60;95.30;;;;;;5011418;28;20058;-51
2021/07/08 04:16:22;;;;;;;16.50;11.85;;;13.60;95.40;;;;;;5011017;28;20056;-52
2021/07/08 04:18:48;;;;;;;18.92;12.63;;;13.70;95.40;;;;;;5011305;28;20064;-52
2021/07/08 04:21:13;;;;;;;15.82;12.52;;;13.70;95.40;;;;;;5014267;28;20546;-51
2021/07/08 04:23:39;;;;;;;17.75;11.60;;;13.70;95.50;;;;;;5013778;28;20114;-52
2021/07/08 04:26:05;;;;;;;15.35;11.68;;;13.70;95.50;;;;;;5013202;28;20045;-50
2021/07/08 04:28:32;;;;;;;17.48;12.45;;;13.70;95.50;;;;;;5014018;28;20041;-50
2021/07/08 04:31:00;;;;;;;15.73;12.77;;;13.70;95.60;;;;;;4997549;28;20065;-52
2021/07/08 04:33:26;;;;;;;16.05;13.60;;;13.80;95.80;;;;;;5013868;28;20073;-50
2021/07/08 04:35:52;;;;;;;18.95;14.57;;;13.80;95.80;;;;;;5014032;28;20034;-52
2021/07/08 04:38:18;;;;;;;18.50;13.90;;;13.90;95.90;;;;;;5005299;28;20050;-50
2021/07/08 04:41:04;;;;;;;20.42;15.20;;;13.90;95.90;;;;;;5011310;28;20045;-50
2021/07/08 04:43:31;;;;;;;20.05;15.15;;;14.00;95.90;;;;;;5014710;28;20497;-49
2021/07/08 04:45:57;;;;;;;19.20;14.35;;;14.00;95.90;;;;;;5014213;28;20050;-51
2021/07/08 04:48:27;;;;;;;19.67;14.02;;;14.10;95.80;;;;;;5018860;28;20045;-49
2021/07/08 04:50:53;;;;;;;17.75;13.45;;;14.20;95.70;;;;;;5013031;28;20206;-50
2021/07/08 04:53:20;;;;;;;19.73;13.30;;;14.20;95.80;;;;;;5013260;28;20042;-49
2021/07/08 04:55:46;;;;;;;15.52;12.40;;;14.30;95.70;;;;;;5013025;28;20041;-52
2021/07/08 04:58:12;;;;;;;17.98;14.30;;;14.30;95.60;;;;;;5013343;28;20037;-52
2021/07/08 05:00:38;;;;;;;18.13;13.52;;;14.30;95.60;;;;;;5014707;28;20045;-51
2021/07/08 05:03:09;;;;;;;17.77;13.00;;;14.40;95.70;;;;;;5014515;28;20052;-51
2021/07/08 05:05:36;;;;;;;15.77;12.80;;;14.50;95.70;;;;;;5013625;28;20041;-51
2021/07/08 05:08:03;;;;;;;15.05;11.70;;;14.60;95.80;;;;;;5014317;28;20045;-50
2021/07/08 05:10:29;;;;;;;13.98;11.73;;;14.70;95.70;;;;;;5006207;28;20057;-51
2021/07/08 05:12:54;;;;;;;14.48;11.70;;;14.90;95.60;;;;;;5031663;28;20041;-50
2021/07/08 05:15:21;;;;;;;14.60;11.73;;;15.00;95.60;;;;;;5013529;28;20038;-49
2021/07/08 05:17:48;;;;;;;13.90;11.40;;;15.30;95.50;;;;;;5013348;28;20046;-52
2021/07/08 05:20:15;;;;;;;17.77;14.15;;;15.40;95.00;;;;;;5014459;28;20037;-53
2021/07/08 05:22:45;;;;;;;16.63;13.82;;;15.50;94.80;;;;;;5013667;28;20069;-48
2021/07/08 05:25:15;;;;;;;16.52;13.68;;;15.50;94.80;;;;;;5018026;28;20048;-51
2021/07/08 05:27:41;;;;;;;16.27;13.93;;;15.50;94.70;;;;;;5012986;28;20049;-53
2021/07/08 05:30:08;;;;;;;17.67;14.90;;;15.60;94.90;;;;;;5010943;28;20168;-53
2021/07/08 05:32:34;;;;;;;20.90;13.75;;;15.80;94.70;;;;;;5011967;28;20041;-53
2021/07/08 05:35:00;;;;;;;19.70;14.65;;;16.00;94.40;;;;;;5013970;28;20050;-50
2021/07/08 05:37:26;;;;;;;20.33;16.25;;;16.10;94.30;;;;;;5013485;28;20041;-50
2021/07/08 05:39:54;;;;;;;20.02;15.95;;;16.30;94.20;;;;;;5018641;28;20042;-51
2021/07/08 05:42:19;;;;;;;20.95;16.30;;;16.60;94.20;;;;;;5013109;28;20132;-51
2021/07/08 05:44:45;;;;;;;21.70;16.13;;;16.80;94.00;;;;;;5013926;28;20532;-52
2021/07/08 05:47:12;;;;;;;20.30;16.98;;;17.00;93.90;;;;;;4997784;28;20491;-50
2021/07/08 05:49:38;;;;;;;19.70;15.77;;;17.10;94.10;;;;;;5008234;28;20068;-51
2021/07/08 05:52:04;;;;;;;22.10;18.65;;;17.20;93.80;;;;;;5013880;28;20088;-53
2021/07/08 05:54:30;;;;;;;25.17;20.17;;;17.30;93.70;;;;;;5023383;28;20411;-50
2021/07/08 05:56:56;;;;;;;27.50;22.40;;;17.50;93.70;;;;;;5008636;28;20045;-53
2021/07/08 05:59:24;;;;;;;26.63;22.10;;;17.90;93.20;;;;;;5002575;28;20034;-52
2021/07/08 06:01:51;;;;;;;26.63;22.17;;;18.20;92.80;;;;;;5002199;28;20034;-54
2021/07/08 06:04:17;;;;;;;26.85;22.05;;;18.30;92.40;;;;;;4992271;28;20042;-53
2021/07/08 06:06:46;;;;;;;23.20;19.85;;;18.30;92.30;;;;;;5009539;28;20230;-51
2021/07/08 06:09:12;;;;;;;24.02;20.17;;;18.40;92.10;;;;;;5011720;28;20053;-52
2021/07/08 06:11:38;;;;;;;24.98;20.85;;;18.50;92.00;;;;;;5012670;28;20406;-53
2021/07/08 06:14:04;;;;;;;24.13;19.73;;;18.40;92.00;;;;;;5006175;28;20049;-52
2021/07/08 06:16:30;;;;;;;24.02;20.45;;;18.40;92.10;;;;;;5012658;28;20065;-52
2021/07/08 06:18:55;;;;;;;23.13;20.42;;;18.40;92.20;;;;;;5013153;28;20042;-53
2021/07/08 06:21:21;;;;;;;22.85;20.30;;;18.40;92.20;;;;;;5005307;28;20092;-51
2021/07/08 06:23:47;;;;;;;25.23;20.27;;;18.40;92.20;;;;;;5010182;28;20402;-52
2021/07/08 06:26:14;;;;;;;27.65;20.20;;;18.40;92.30;;;;;;5003897;28;20096;-53
2021/07/08 06:28:41;;;;;;;22.85;19.40;;;18.50;92.30;;;;;;5010565;28;20045;-51
2021/07/08 06:31:07;;;;;;;25.70;18.48;;;18.50;92.20;;;;;;5011777;28;20052;-52
2021/07/08 06:33:33;;;;;;;22.88;18.27;;;18.50;92.20;;;;;;5014934;28;20045;-53
2021/07/08 06:35:58;;;;;;;25.35;20.58;;;18.50;92.50;;;;;;5012512;28;20041;-53
2021/07/08 06:38:24;;;;;;;25.13;20.33;;;18.50;92.30;;;;;;5013838;28;20042;-52
2021/07/08 06:40:50;;;;;;;25.77;20.30;;;18.60;92.40;;;;;;5011148;28;20034;-50
2021/07/08 06:43:16;;;;;;;26.10;18.73;;;18.60;92.30;;;;;;5011128;28;20038;-50
2021/07/08 06:45:42;;;;;;;23.92;18.85;;;18.60;92.40;;;;;;5010855;28;20450;-53
2021/07/08 06:48:12;;;;;;;20.90;18.60;;;18.60;92.40;;;;;;4994157;28;20049;-52
2021/07/08 06:50:39;;;;;;;23.52;18.15;;;18.60;92.30;;;;;;4993455;28;20046;-54
2021/07/08 06:53:05;;;;;;;19.38;17.25;;;18.70;92.30;;;;;;5011432;28;20045;-51
2021/07/08 06:55:33;;;;;;;22.52;17.90;;;18.70;92.30;;;;;;5009148;28;20099;-52
2021/07/08 06:57:59;;;;;;;22.45;17.02;;;18.70;92.20;;;;;;4986929;28;20046;-51
2021/07/08 07:00:29;;;;;;;23.02;18.77;;;18.70;92.10;;;;;;5010155;28;20499;-53
2021/07/08 07:02:58;;;;;;;22.77;17.80;;;18.80;92.20;;;;;;5009851;28;20037;-53
2021/07/08 07:05:26;;;;;;;20.02;17.92;;;18.90;92.10;;;;;;4992755;28;20115;-53
2021/07/08 07:07:52;;;;;;;21.98;18.92;;;19.00;92.00;;;;;;5009213;28;20034;-54
2021/07/08 07:10:20;;;;;;;21.83;19.50;;;19.10;91.90;;;;;;5010089;28;20461;-51
2021/07/08 07:12:47;;;;;;;17.98;16.08;;;19.20;92.10;;;;;;5011164;28;20399;-53
2021/07/08 07:15:16;;;;;;;20.50;15.40;;;19.30;91.90;;;;;;5011077;28;20052;-53
2021/07/08 07:17:43;;;;;;;18.70;15.00;;;19.50;91.10;;;;;;5010077;28;20034;-53
2021/07/08 07:20:10;;;;;;;18.85;14.77;;;19.70;90.90;;;;;;5011405;28;20037;-52
2021/07/08 07:22:38;;;;;;;18.67;14.25;;;19.80;90.80;;;;;;5007088;28;20046;-53
2021/07/08 07:25:07;;;;;;;16.80;13.77;;;20.00;90.30;;;;;;5022612;28;20046;-53
2021/07/08 07:27:33;;;;;;;19.85;14.57;;;20.20;90.00;;;;;;5011361;28;20072;-51
2021/07/08 07:30:03;;;;;;;18.52;13.98;;;20.30;89.30;;;;;;5011551;28;20081;-53
2021/07/08 07:32:30;;;;;;;17.92;15.27;;;20.50;89.20;;;;;;5012127;28;20553;-53
2021/07/08 07:34:57;;;;;;;24.20;15.55;;;20.50;89.10;;;;;;5008993;28;20044;-53
2021/07/08 07:37:23;;;;;;;16.55;13.43;;;20.70;89.10;;;;;;5009265;28;20092;-52
2021/07/08 07:39:49;;;;;;;16.30;13.65;;;20.80;87.00;;;;;;5008429;28;20034;-54
2021/07/08 07:42:15;;;;;;;18.60;14.30;;;20.80;87.20;;;;;;5010739;28;20104;-54
2021/07/08 07:44:43;;;;;;;15.55;12.45;;;20.90;86.60;;;;;;5010175;28;20076;-52
2021/07/08 07:47:11;;;;;;;14.82;10.15;;;20.90;86.20;;;;;;5008842;28;20423;-51
2021/07/08 07:49:37;;;;;;;18.58;12.02;;;21.00;85.30;;;;;;5010948;28;20136;-53
2021/07/08 07:52:05;;;;;;;17.60;13.55;;;21.10;85.30;;;;;;5012598;28;20103;-51
2021/07/08 07:54:35;;;;;;;15.93;13.15;;;21.10;85.20;;;;;;5011239;28;20045;-52
2021/07/08 07:57:04;;;;;;;17.58;12.68;;;21.20;85.00;;;;;;5015048;28;20513;-53
2021/07/08 07:59:31;;;;;;;16.92;12.48;;;21.20;85.10;;;;;;4997811;28;20050;-53
2021/07/08 08:01:57;;;;;;;17.55;13.65;;;21.30;84.50;;;;;;5016962;28;20525;-52
2021/07/08 08:04:25;;;;;;;19.13;13.02;;;21.30;83.10;;;;;;5014091;28;20065;-53
2021/07/08 08:09:35;;;;;;;19.13;12.70;;;21.40;82.30;;;;;;5015704;28;20160;-52
2021/07/08 08:12:01;;;;;;;15.88;11.68;;;21.40;82.20;;;;;;5013624;28;20048;-53
2021/07/08 08:14:27;;;;;;;12.35;10.13;;;21.50;82.70;;;;;;5015925;28;20052;-53
2021/07/08 08:16:53;;;;;;;14.32;10.13;;;21.50;81.50;;;;;;5014161;28;20112;-53
2021/07/08 08:19:19;;;;;;;13.45;9.68;;;21.60;81.20;;;;;;5014004;28;20061;-54
2021/07/08 08:21:45;;;;;;;13.55;8.90;;;21.60;81.70;;;;;;5013916;28;20049;-52
2021/07/08 08:24:11;;;;;;;14.23;8.23;;;21.70;81.00;;;;;;5014299;28;20073;-52
2021/07/08 08:26:37;;;;;;;12.73;8.60;;;21.80;81.00;;;;;;5012388;28;20042;-50
2021/07/08 08:29:03;;;;;;;11.75;8.43;;;21.80;80.70;;;;;;5014535;28;20522;-53
2021/07/08 08:31:29;;;;;;;12.95;7.18;;;21.90;80.30;;;;;;5013803;28;20046;-54
2021/07/08 08:33:55;;;;;;;13.07;7.10;;;22.00;79.20;;;;;;5014714;28;20133;-54
2021/07/08 08:36:21;;;;;;;10.48;7.38;;;22.10;78.80;;;;;;5013999;28;20045;-52
2021/07/08 08:38:47;;;;;;;9.60;6.75;;;22.10;79.80;;;;;;5013263;28;20073;-53
2021/07/08 08:41:12;;;;;;;10.07;6.72;;;22.20;78.60;;;;;;5013370;28;20060;-54
2021/07/08 08:43:40;;;;;;;11.95;7.68;;;22.20;78.70;;;;;;5014170;28;20552;-54
2021/07/08 08:46:05;;;;;;;9.27;6.95;;;22.20;78.90;;;;;;5012236;28;20410;-51
2021/07/08 08:48:31;;;;;;;10.32;6.82;;;22.30;79.30;;;;;;5013479;28;20041;-54
2021/07/08 08:50:57;;;;;;;9.70;7.05;;;22.30;78.60;;;;;;5014249;28;20046;-55
2021/07/08 08:53:24;;;;;;;11.15;7.15;;;22.30;77.80;;;;;;5013507;28;20040;-55
2021/07/08 08:55:51;;;;;;;11.77;6.90;;;22.30;77.50;;;;;;5013700;28;20522;-53
2021/07/08 08:58:20;;;;;;;8.48;6.20;;;22.20;77.40;;;;;;4996605;28;20049;-50
2021/07/08 09:00:48;;;;;;;12.52;6.53;;;22.00;77.50;;;;;;5013816;28;20120;-52
2021/07/08 09:03:16;;;;;;;9.80;6.88;;;21.90;77.50;;;;;;5014031;28;20220;-52
2021/07/08 09:05:45;;;;;;;12.75;6.60;;;21.90;77.70;;;;;;5013033;28;20095;-52
2021/07/08 09:08:19;;;;;;;11.15;7.55;;;21.80;78.40;;;;;;5011909;28;20087;-52
2021/07/08 09:10:49;;;;;;;10.65;7.10;;;21.70;78.20;;;;;;5013716;28;20049;-52
2021/07/08 09:13:15;;;;;;;11.18;6.70;;;21.70;78.50;;;;;;5011816;28;20483;-55
2021/07/08 09:15:42;;;;;;;11.27;6.82;;;21.60;78.50;;;;;;5013255;28;20060;-52
2021/07/08 09:18:08;;;;;;;14.65;6.95;;;21.70;78.70;;;;;;5013989;28;20066;-51
2021/07/08 09:20:36;;;;;;;10.32;7.22;;;21.90;79.00;;;;;;5012500;28;20128;-52
2021/07/08 09:23:15;;;;;;;10.88;7.13;;;21.90;78.60;;;;;;4996409;28;20289;-52
2021/07/08 09:25:41;;;;;;;13.02;7.60;;;21.80;78.10;;;;;;5012862;28;20049;-51
2021/07/08 09:28:25;;;;;;;9.82;7.55;;;21.80;79.10;;;;;;5012777;28;20029;-50
2021/07/08 09:31:02;;;;;;;12.98;8.48;;;21.70;80.00;;;;;;5013907;28;20065;-52
2021/07/08 09:33:40;;;;;;;13.45;7.47;;;21.60;79.80;;;;;;5009079;28;20031;-52
2021/07/08 09:36:07;;;;;;;13.40;7.68;;;21.40;79.80;;;;;;5006004;28;20057;-52
2021/07/08 09:38:33;;;;;;;11.82;7.50;;;21.20;79.90;;;;;;5013466;28;20038;-52
2021/07/08 09:41:10;;;;;;;10.65;7.13;;;21.10;80.20;;;;;;5012147;28;20108;-54
2021/07/08 09:43:38;;;;;;;10.05;6.97;;;20.90;78.60;;;;;;4995647;28;20042;-50
2021/07/08 09:46:04;;;;;;;10.65;7.93;;;20.80;80.00;;;;;;5006869;28;20091;-52
2021/07/08 09:48:30;;;;;;;13.18;7.22;;;20.60;80.10;;;;;;5009546;28;20047;-52
2021/07/08 09:50:56;;;;;;;14.05;7.28;;;20.50;79.80;;;;;;5013382;28;20048;-51
2021/07/08 09:53:24;;;;;;;12.07;7.53;;;20.50;80.40;;;;;;5007833;28;20038;-51
2021/07/08 09:58:52;;;;;;;10.10;7.00;;;20.50;81.20;;;;;;5013098;28;20046;-54
2021/07/08 10:01:19;;;;;;;10.80;6.38;;;20.80;81.20;;;;;;5010695;28;20482;-51
2021/07/08 10:03:44;;;;;;;14.57;6.90;;;21.00;80.60;;;;;;5006282;28;20041;-51
2021/07/08 10:06:11;;;;;;;11.30;6.70;;;21.30;80.40;;;;;;5012651;28;20466;-51
2021/07/08 10:08:39;;;;;;;9.38;6.13;;;21.50;80.90;;;;;;5011436;28;20462;-49
2021/07/08 10:11:05;;;;;;;11.30;5.85;;;21.70;79.40;;;;;;5012692;28;20049;-51
2021/07/08 10:13:36;;;;;;;8.95;6.05;;;21.90;78.30;;;;;;4994882;28;20053;-48
2021/07/08 10:16:04;;;;;;;11.52;6.47;;;22.00;77.30;;;;;;5010912;28;20388;-48
2021/07/08 10:18:32;;;;;;;9.35;5.47;;;22.10;77.20;;;;;;5011792;28;20404;-54
2021/07/08 10:20:59;;;;;;;8.15;5.55;;;22.10;75.90;;;;;;5012832;28;20069;-50
2021/07/08 10:23:26;;;;;;;11.32;6.30;;;22.00;75.50;;;;;;5012288;28;20491;-48
2021/07/08 10:25:52;;;;;;;10.23;5.97;;;22.10;76.10;;;;;;5011314;28;20068;-49
2021/07/08 10:28:19;;;;;;;10.88;6.40;;;22.10;75.70;;;;;;5012131;28;20045;-52
2021/07/08 10:30:48;;;;;;;13.48;7.05;;;22.10;75.70;;;;;;5011713;28;20048;-50
2021/07/08 10:33:19;;;;;;;9.57;5.93;;;22.10;76.80;;;;;;5012332;28;20092;-51
2021/07/08 10:35:46;;;;;;;15.07;7.07;;;22.10;76.00;;;;;;5012170;28;20049;-49
2021/07/08 10:38:34;;;;;;;11.70;6.95;;;22.10;76.20;;;;;;5012615;28;20041;-51
2021/07/08 10:41:29;;;;;;;10.25;6.70;;;22.20;77.10;;;;;;5012405;28;20450;-52
2021/07/08 10:43:55;;;;;;;10.68;6.38;;;22.20;76.90;;;;;;5007451;28;20065;-52
2021/07/08 10:46:37;;;;;;;10.70;6.57;;;22.20;77.10;;;;;;4994462;28;20046;-53
2021/07/08 10:49:13;;;;;;;11.30;7.10;;;22.30;75.50;;;;;;5011257;28;20076;-54
2021/07/08 10:51:42;;;;;;;9.73;6.55;;;22.40;76.60;;;;;;5012391;28;20045;-53
2021/07/08 10:54:26;;;;;;;10.45;6.65;;;22.50;75.30;;;;;;5011760;28;20521;-52
2021/07/08 10:56:52;;;;;;;7.72;5.82;;;22.50;73.10;;;;;;5011437;28;20050;-54
2021/07/08 10:59:18;;;;;;;14.60;6.50;;;22.50;73.00;;;;;;5011729;28;20121;-54
2021/07/08 11:01:45;;;;;;;9.52;6.22;;;22.60;73.20;;;;;;5011911;28;20467;-52
2021/07/08 11:04:12;;;;;;;9.10;6.13;;;22.60;72.50;;;;;;5011363;28;20088;-54
2021/07/08 11:06:46;;;;;;;9.38;5.82;;;22.70;72.10;;;;;;5011355;28;20111;-53
2021/07/08 11:09:18;;;;;;;13.00;7.60;;;22.80;72.50;;;;;;5011828;28;20038;-54
2021/07/08 11:11:46;;;;;;;;;;;22.90;72.80;;;;;;5009974;28;20038;-55
2021/07/08 11:14:23;;;;;;;11.43;7.32;;;23.00;72.90;;;;;;5014873;28;20397;-54
2021/07/08 11:17:00;;;;;;;11.55;6.78;;;23.10;72.10;;;;;;5008444;28;20048;-55
2021/07/08 11:19:26;;;;;;;13.15;6.28;;;23.10;71.30;;;;;;5006928;28;20049;-51
2021/07/08 11:22:04;;;;;;;10.90;6.10;;;23.10;71.20;;;;;;5017432;28;20077;-55
2021/07/08 11:24:50;;;;;;;10.15;6.57;;;23.20;70.90;;;;;;5009454;28;20483;-54
2021/07/08 11:27:29;;;;;;;10.32;5.75;;;23.20;70.80;;;;;;5009656;28;20103;-54
2021/07/08 11:30:02;;;;;;;8.32;6.38;;;23.20;71.40;;;;;;5009904;28;20089;-53
2021/07/08 11:32:47;;;;;;;8.63;5.47;;;23.30;71.80;;;;;;5008001;28;20042;-54
2021/07/08 11:35:37;;;;;;;11.85;6.25;;;23.40;71.60;;;;;;5010992;28;20046;-54
2021/07/08 11:38:14;;;;;;;10.43;5.88;;;23.70;71.20;;;;;;5009025;28;20049;-54
2021/07/08 11:40:44;;;;;;;9.55;6.13;;;23.70;70.30;;;;;;5008630;28;20045;-53
2021/07/08 11:43:23;;;;;;;8.93;5.22;;;23.60;68.30;;;;;;5008962;28;20109;-53
2021/07/08 11:45:53;;;;;;;8.45;5.38;;;23.40;70.30;;;;;;5004047;28;20129;-48
2021/07/08 11:48:28;;;;;;;9.07;5.68;;;23.20;69.60;;;;;;5006974;28;20073;-52
2021/07/08 11:50:55;;;;;;;10.90;5.70;;;23.00;69.10;;;;;;5004859;28;20119;-51
2021/07/08 11:53:21;;;;;;;9.20;5.32;;;22.80;71.80;;;;;;5004126;28;20069;-52
2021/07/08 11:55:56;;;;;;;8.45;5.57;;;22.60;71.50;;;;;;4998806;28;20049;-51
2021/07/08 11:58:31;;;;;;;9.60;5.45;;;22.50;72.10;;;;;;5010183;28;20076;-50
2021/07/08 12:01:01;;;;;;;7.57;5.20;;;22.40;72.60;;;;;;5009420;28;20038;-51
2021/07/08 12:03:36;;;;;;;7.85;5.13;;;22.40;72.90;;;;;;5010379;28;20038;-53
2021/07/08 12:06:04;;;;;;;8.23;4.68;;;22.30;73.10;;;;;;5005268;28;20042;-51
2021/07/08 12:09:06;;;;;;;8.57;5.10;;;22.30;73.40;;;;;;5008912;28;20526;-53
2021/07/08 12:11:39;;;;;;;8.30;4.65;;;22.40;73.20;;;;;;5006519;28;20513;-55
2021/07/08 12:14:16;;;;;;;8.50;4.63;;;22.50;72.90;;;;;;5002978;28;20073;-51
2021/07/08 12:16:44;;;;;;;10.20;4.82;;;22.80;72.90;;;;;;5010311;28;20052;-51
2021/07/08 12:19:29;;;;;;;9.57;5.07;;;23.00;70.90;;;;;;5007214;28;20410;-51
2021/07/08 12:21:58;;;;;;;8.07;4.50;;;23.00;70.70;;;;;;5010661;28;20041;-51
2021/07/08 12:24:25;;;;;;;9.23;3.72;;;23.00;70.90;;;;;;5010057;28;20042;-52
2021/07/08 12:26:54;;;;;;;6.18;3.97;;;23.00;70.40;;;;;;5006935;28;20046;-51
2021/07/08 12:29:29;;;;;;;5.78;4.05;;;22.90;70.50;;;;;;5009933;28;20037;-55
2021/07/08 12:32:00;;;;;;;8.48;4.53;;;22.90;70.20;;;;;;5009976;28;20056;-55
2021/07/08 12:34:35;;;;;;;7.20;3.80;;;22.80;70.70;;;;;;5009750;28;20074;-54
2021/07/08 12:37:25;;;;;;;6.57;3.45;;;22.80;67.30;;;;;;5008895;28;20043;-54
2021/07/08 12:40:06;;;;;;;6.95;3.80;;;22.80;68.00;;;;;;4992421;28;20049;-55
2021/07/08 12:42:42;;;;;;;7.15;4.00;;;22.80;69.60;;;;;;5014387;28;20546;-55
2021/07/08 12:45:13;;;;;;;6.47;3.63;;;22.80;70.10;;;;;;5014488;28;20069;-55